sensor_id;sensor_type;location;lat;lon;timestamp;pressure;altitude;pressure_sealevel;temperature;humidity
76156;BME280;64906;51.290;7.348;2023-09-08T00:00:30;98988.81;;;22.27;59.21
76156;BME280;64906;51.290;7.348;2023-09-08T00:02:55;98992.94;;;22.24;59.39
76156;BME280;64906;51.290;7.348;2023-09-08T00:05:21;98988.81;;;22.27;59.28
76156;BME280;64906;51.290;7.348;2023-09-08T00:07:46;98980.56;;;22.27;59.20
76156;BME280;64906;51.290;7.348;2023-09-08T00:10:11;98982.78;;;22.25;59.29
76156;BME280;64906;51.290;7.348;2023-09-08T00:12:37;98977.88;;;22.22;59.29
76156;BME280;64906;51.290;7.348;2023-09-08T00:15:03;98979.81;;;22.21;59.22
76156;BME280;64906;51.290;7.348;2023-09-08T00:17:28;98976.56;;;22.19;59.37
76156;BME280;64906;51.290;7.348;2023-09-08T00:19:53;98978.50;;;22.19;59.22
76156;BME280;64906;51.290;7.348;2023-09-08T00:22:19;98978.19;;;22.20;59.16
76156;BME280;64906;51.290;7.348;2023-09-08T00:24:44;98971.06;;;22.19;59.41
76156;BME280;64906;51.290;7.348;2023-09-08T00:27:09;98966.38;;;22.20;59.23
76156;BME280;64906;51.290;7.348;2023-09-08T00:29:35;98963.91;;;22.18;59.09
76156;BME280;64906;51.290;7.348;2023-09-08T00:32:00;98972.69;;;22.20;58.98
76156;BME280;64906;51.290;7.348;2023-09-08T00:34:25;98971.63;;;22.16;59.43
76156;BME280;64906;51.290;7.348;2023-09-08T00:36:51;98968.59;;;22.18;59.29
76156;BME280;64906;51.290;7.348;2023-09-08T00:39:16;98965.25;;;22.21;59.00
76156;BME280;64906;51.290;7.348;2023-09-08T00:41:41;98971.06;;;22.19;58.88
76156;BME280;64906;51.290;7.348;2023-09-08T00:44:07;98962.81;;;22.19;59.00
76156;BME280;64906;51.290;7.348;2023-09-08T00:46:34;98967.78;;;22.17;59.08
76156;BME280;64906;51.290;7.348;2023-09-08T00:49:00;98965.84;;;22.18;59.17
76156;BME280;64906;51.290;7.348;2023-09-08T00:51:25;98967.25;;;22.15;59.10
76156;BME280;64906;51.290;7.348;2023-09-08T00:53:51;98968.88;;;22.16;58.93
76156;BME280;64906;51.290;7.348;2023-09-08T00:56:16;98966.13;;;22.16;59.25
76156;BME280;64906;51.290;7.348;2023-09-08T00:58:42;98972.16;;;22.18;58.90
76156;BME280;64906;51.290;7.348;2023-09-08T01:01:08;98962.59;;;22.16;58.88
76156;BME280;64906;51.290;7.348;2023-09-08T01:03:33;98975.22;;;22.17;58.88
76156;BME280;64906;51.290;7.348;2023-09-08T01:05:59;98976.03;;;22.17;59.05
76156;BME280;64906;51.290;7.348;2023-09-08T01:08:25;98966.75;;;22.13;59.08
76156;BME280;64906;51.290;7.348;2023-09-08T01:10:51;98971.63;;;22.16;59.12
76156;BME280;64906;51.290;7.348;2023-09-08T01:13:17;98971.06;;;22.19;58.76
76156;BME280;64906;51.290;7.348;2023-09-08T01:15:42;98970.00;;;22.15;59.22
76156;BME280;64906;51.290;7.348;2023-09-08T01:18:07;98975.28;;;22.12;59.45
76156;BME280;64906;51.290;7.348;2023-09-08T01:25:59;98976.13;;;22.12;59.17
76156;BME280;64906;51.290;7.348;2023-09-08T01:28:27;98969.78;;;22.12;59.19
76156;BME280;64906;51.290;7.348;2023-09-08T01:30:55;98968.69;;;22.13;58.94
76156;BME280;64906;51.290;7.348;2023-09-08T01:33:21;98967.56;;;22.14;58.94
76156;BME280;64906;51.290;7.348;2023-09-08T01:35:47;98965.13;;;22.12;58.95
76156;BME280;64906;51.290;7.348;2023-09-08T01:38:12;98965.13;;;22.12;58.83
76156;BME280;64906;51.290;7.348;2023-09-08T01:40:37;98968.41;;;22.14;59.01
76156;BME280;64906;51.290;7.348;2023-09-08T01:43:03;98971.72;;;22.11;59.27
76156;BME280;64906;51.290;7.348;2023-09-08T01:45:28;98964.91;;;22.09;58.86
76156;BME280;64906;51.290;7.348;2023-09-08T01:47:53;98962.06;;;22.14;58.91
76156;BME280;64906;51.290;7.348;2023-09-08T01:50:19;98961.84;;;22.10;59.09
76156;BME280;64906;51.290;7.348;2023-09-08T01:52:47;98963.19;;;22.13;59.10
76156;BME280;64906;51.290;7.348;2023-09-08T01:55:13;98953.28;;;22.12;59.09
76156;BME280;64906;51.290;7.348;2023-09-08T01:57:38;98956.88;;;22.12;58.95
76156;BME280;64906;51.290;7.348;2023-09-08T02:00:04;98951.69;;;22.11;59.09
76156;BME280;64906;51.290;7.348;2023-09-08T02:02:30;98957.47;;;22.09;59.01
76156;BME280;64906;51.290;7.348;2023-09-08T02:04:55;98952.78;;;22.10;58.72
76156;BME280;64906;51.290;7.348;2023-09-08T02:07:21;98950.03;;;22.10;58.56
76156;BME280;64906;51.290;7.348;2023-09-08T02:09:46;98956.13;;;22.07;58.79
76156;BME280;64906;51.290;7.348;2023-09-08T02:12:11;98947.56;;;22.08;58.93
76156;BME280;64906;51.290;7.348;2023-09-08T02:14:37;98947.88;;;22.07;58.79
76156;BME280;64906;51.290;7.348;2023-09-08T02:17:03;98949.81;;;22.06;58.87
76156;BME280;64906;51.290;7.348;2023-09-08T02:19:28;98951.44;;;22.07;58.83
76156;BME280;64906;51.290;7.348;2023-09-08T02:21:53;98955.03;;;22.08;59.15
76156;BME280;64906;51.290;7.348;2023-09-08T02:24:19;98952.78;;;22.10;58.88
76156;BME280;64906;51.290;7.348;2023-09-08T02:26:44;98949.81;;;22.06;58.79
76156;BME280;64906;51.290;7.348;2023-09-08T02:29:09;98954.56;;;22.01;59.29
76156;BME280;64906;51.290;7.348;2023-09-08T02:31:35;98939.41;;;22.03;59.16
76156;BME280;64906;51.290;7.348;2023-09-08T02:34:00;98936.97;;;22.02;58.85
76156;BME280;64906;51.290;7.348;2023-09-08T02:36:26;98933.34;;;22.06;58.70
76156;BME280;64906;51.290;7.348;2023-09-08T02:38:55;98935.78;;;22.08;58.70
76156;BME280;64906;51.290;7.348;2023-09-08T02:41:21;98936.16;;;22.01;58.79
76156;BME280;64906;51.290;7.348;2023-09-08T02:43:47;98934.50;;;22.00;59.13
76156;BME280;64906;51.290;7.348;2023-09-08T02:46:13;98938.59;;;22.03;58.99
76156;BME280;64906;51.290;7.348;2023-09-08T02:48:39;98945.50;;;22.00;58.66
76156;BME280;64906;51.290;7.348;2023-09-08T02:51:04;98943.88;;;21.99;59.24
76156;BME280;64906;51.290;7.348;2023-09-08T02:53:30;98947.66;;;22.03;58.78
76156;BME280;64906;51.290;7.348;2023-09-08T02:55:56;98944.91;;;22.03;58.88
76156;BME280;64906;51.290;7.348;2023-09-08T02:58:22;98943.50;;;22.06;58.95
76156;BME280;64906;51.290;7.348;2023-09-08T03:00:47;98945.94;;;22.07;58.53
76156;BME280;64906;51.290;7.348;2023-09-08T03:05:40;98941.94;;;22.00;58.97
76156;BME280;64906;51.290;7.348;2023-09-08T03:08:05;98937.03;;;21.97;59.11
76156;BME280;64906;51.290;7.348;2023-09-08T03:10:31;98945.50;;;22.00;58.81
76156;BME280;64906;51.290;7.348;2023-09-08T03:12:59;98949.69;;;21.98;58.63
76156;BME280;64906;51.290;7.348;2023-09-08T03:15:25;98936.72;;;21.98;58.82
76156;BME280;64906;51.290;7.348;2023-09-08T03:17:56;98936.72;;;21.98;59.04
76156;BME280;64906;51.290;7.348;2023-09-08T03:20:24;98933.97;;;21.98;58.71
76156;BME280;64906;51.290;7.348;2023-09-08T03:22:49;98932.59;;;22.01;58.76
76156;BME280;64906;51.290;7.348;2023-09-08T03:25:14;98925.66;;;22.03;58.40
76156;BME280;64906;51.290;7.348;2023-09-08T03:27:40;98925.44;;;22.00;58.75
76156;BME280;64906;51.290;7.348;2023-09-08T03:30:05;98924.63;;;21.99;58.50
76156;BME280;64906;51.290;7.348;2023-09-08T03:32:31;98918.41;;;21.94;58.66
76156;BME280;64906;51.290;7.348;2023-09-08T03:34:56;98922.78;;;21.95;58.51
76156;BME280;64906;51.290;7.348;2023-09-08T03:37:22;98923.06;;;21.93;58.95
76156;BME280;64906;51.290;7.348;2023-09-08T03:39:47;98926.13;;;21.92;58.82
76156;BME280;64906;51.290;7.348;2023-09-08T03:42:13;98927.47;;;21.94;58.46
76156;BME280;64906;51.290;7.348;2023-09-08T03:44:38;98934.28;;;21.97;58.79
76156;BME280;64906;51.290;7.348;2023-09-08T03:47:03;98929.31;;;21.99;58.70
76156;BME280;64906;51.290;7.348;2023-09-08T03:49:28;98928.47;;;21.98;58.40
76156;BME280;64906;51.290;7.348;2023-09-08T03:51:54;98923.88;;;21.94;58.54
76156;BME280;64906;51.290;7.348;2023-09-08T03:54:19;98923.59;;;21.95;58.54
76156;BME280;64906;51.290;7.348;2023-09-08T03:56:44;98923.88;;;21.94;58.57
76156;BME280;64906;51.290;7.348;2023-09-08T03:59:09;98925.53;;;21.95;58.41
76156;BME280;64906;51.290;7.348;2023-09-08T04:01:35;98934.06;;;21.93;58.84
76156;BME280;64906;51.290;7.348;2023-09-08T04:04:01;98930.00;;;21.91;58.45
76156;BME280;64906;51.290;7.348;2023-09-08T04:06:26;98935.72;;;21.94;58.39
76156;BME280;64906;51.290;7.348;2023-09-08T04:08:53;98934.59;;;21.95;58.53
76156;BME280;64906;51.290;7.348;2023-09-08T04:11:18;98938.75;;;21.93;58.35
76156;BME280;64906;51.290;7.348;2023-09-08T04:13:43;98943.44;;;21.92;58.61
76156;BME280;64906;51.290;7.348;2023-09-08T04:16:09;98940.69;;;21.92;58.58
76156;BME280;64906;51.290;7.348;2023-09-08T04:18:34;98937.72;;;21.89;58.85
76156;BME280;64906;51.290;7.348;2023-09-08T04:20:59;98943.72;;;21.91;58.64
76156;BME280;64906;51.290;7.348;2023-09-08T04:23:24;98948.63;;;21.94;58.29
76156;BME280;64906;51.290;7.348;2023-09-08T04:25:50;98950.56;;;21.93;58.71
76156;BME280;64906;51.290;7.348;2023-09-08T04:28:15;98942.59;;;21.92;58.76
76156;BME280;64906;51.290;7.348;2023-09-08T04:30:40;98945.66;;;21.90;58.60
76156;BME280;64906;51.290;7.348;2023-09-08T04:33:06;98948.09;;;21.92;58.58
76156;BME280;64906;51.290;7.348;2023-09-08T04:35:31;98950.28;;;21.95;58.36
76156;BME280;64906;51.290;7.348;2023-09-08T04:37:57;98955.03;;;21.89;58.60
76156;BME280;64906;51.290;7.348;2023-09-08T04:40:22;98949.53;;;21.89;58.39
76156;BME280;64906;51.290;7.348;2023-09-08T04:42:47;98941.28;;;21.89;58.62
76156;BME280;64906;51.290;7.348;2023-09-08T04:45:12;98941.88;;;21.86;58.98
76156;BME280;64906;51.290;7.348;2023-09-08T04:47:38;98939.38;;;21.90;58.73
76156;BME280;64906;51.290;7.348;2023-09-08T04:50:04;98942.13;;;21.90;58.72
76156;BME280;64906;51.290;7.348;2023-09-08T04:52:30;98947.59;;;21.90;58.58
76156;BME280;64906;51.290;7.348;2023-09-08T04:54:55;98948.94;;;21.92;58.28
76156;BME280;64906;51.290;7.348;2023-09-08T04:57:20;98948.69;;;21.89;58.78
76156;BME280;64906;51.290;7.348;2023-09-08T04:59:45;98942.69;;;21.87;58.60
76156;BME280;64906;51.290;7.348;2023-09-08T05:02:11;98955.78;;;21.95;58.60
76156;BME280;64906;51.290;7.348;2023-09-08T05:04:36;98954.72;;;21.91;58.65
76156;BME280;64906;51.290;7.348;2023-09-08T05:07:02;98948.69;;;21.89;58.73
76156;BME280;64906;51.290;7.348;2023-09-08T05:09:27;98952.56;;;21.88;58.54
76156;BME280;64906;51.290;7.348;2023-09-08T05:11:52;98950.34;;;21.90;58.66
76156;BME280;64906;51.290;7.348;2023-09-08T05:14:18;98943.50;;;21.87;58.40
76156;BME280;64906;51.290;7.348;2023-09-08T05:16:43;98949.53;;;21.89;58.18
76156;BME280;64906;51.290;7.348;2023-09-08T05:19:12;98945.16;;;21.88;58.68
76156;BME280;64906;51.290;7.348;2023-09-08T05:21:38;98947.69;;;21.85;58.52
76156;BME280;64906;51.290;7.348;2023-09-08T05:24:04;98955.03;;;21.89;58.37
76156;BME280;64906;51.290;7.348;2023-09-08T05:26:29;98958.31;;;21.91;58.55
76156;BME280;64906;51.290;7.348;2023-09-08T05:28:55;98950.34;;;21.90;58.48
76156;BME280;64906;51.290;7.348;2023-09-08T05:31:20;98956.94;;;21.89;58.40
76156;BME280;64906;51.290;7.348;2023-09-08T05:33:45;98956.66;;;21.90;58.16
76156;BME280;64906;51.290;7.348;2023-09-08T05:36:10;98951.38;;;21.94;58.47
76156;BME280;64906;51.290;7.348;2023-09-08T05:38:36;98951.16;;;21.90;58.22
76156;BME280;64906;51.290;7.348;2023-09-08T05:41:01;98953.91;;;21.90;58.11
76156;BME280;64906;51.290;7.348;2023-09-08T05:43:27;98951.69;;;21.92;58.34
76156;BME280;64906;51.290;7.348;2023-09-08T05:45:53;98951.97;;;21.91;57.93
76156;BME280;64906;51.290;7.348;2023-09-08T05:48:18;98948.28;;;21.82;58.62
76156;BME280;64906;51.290;7.348;2023-09-08T05:50:44;98947.81;;;21.93;58.40
76156;BME280;64906;51.290;7.348;2023-09-08T05:53:09;98949.97;;;21.96;57.80
76156;BME280;64906;51.290;7.348;2023-09-08T05:55:34;98955.56;;;21.91;57.78
76156;BME280;64906;51.290;7.348;2023-09-08T05:57:59;98954.94;;;21.94;58.17
76156;BME280;64906;51.290;7.348;2023-09-08T06:00:25;98952.50;;;21.93;57.83
76156;BME280;64906;51.290;7.348;2023-09-08T06:02:51;98956.03;;;21.93;58.05
76156;BME280;64906;51.290;7.348;2023-09-08T06:05:16;98955.84;;;21.90;58.10
76156;BME280;64906;51.290;7.348;2023-09-08T06:07:42;98960.75;;;21.93;57.86
76156;BME280;64906;51.290;7.348;2023-09-08T06:10:07;98954.94;;;21.94;58.01
76156;BME280;64906;51.290;7.348;2023-09-08T06:12:33;98961.53;;;21.93;58.16
76156;BME280;64906;51.290;7.348;2023-09-08T06:14:58;98955.56;;;21.91;58.09
76156;BME280;64906;51.290;7.348;2023-09-08T06:17:23;98956.03;;;21.93;58.94
76156;BME280;64906;51.290;7.348;2023-09-08T06:19:48;98960.75;;;21.93;58.67
76156;BME280;64906;51.290;7.348;2023-09-08T06:22:14;98954.88;;;21.99;58.88
76156;BME280;64906;51.290;7.348;2023-09-08T06:24:39;98957.41;;;21.96;58.75
76156;BME280;64906;51.290;7.348;2023-09-08T06:27:05;98966.66;;;22.00;58.76
76156;BME280;64906;51.290;7.348;2023-09-08T06:29:30;98958.94;;;22.02;58.94
76156;BME280;64906;51.290;7.348;2023-09-08T06:31:56;98958.16;;;22.01;58.93
76156;BME280;64906;51.290;7.348;2023-09-08T06:34:21;98958.16;;;22.01;59.08
76156;BME280;64906;51.290;7.348;2023-09-08T06:36:48;98961.16;;;22.00;59.01
76156;BME280;64906;51.290;7.348;2023-09-08T06:39:13;98960.59;;;22.03;58.76
76156;BME280;64906;51.290;7.348;2023-09-08T06:41:38;98959.69;;;22.07;58.60
76156;BME280;64906;51.290;7.348;2023-09-08T06:44:04;98962.44;;;22.07;58.89
76156;BME280;64906;51.290;7.348;2023-09-08T06:46:29;98964.06;;;22.08;58.60
76156;BME280;64906;51.290;7.348;2023-09-08T06:48:55;98950.03;;;22.10;58.77
76156;BME280;64906;51.290;7.348;2023-09-08T06:51:20;98949.72;;;22.11;58.82
76156;BME280;64906;51.290;7.348;2023-09-08T06:53:53;98949.72;;;22.11;58.65
76156;BME280;64906;51.290;7.348;2023-09-08T06:56:19;98946.97;;;22.11;58.87
76156;BME280;64906;51.290;7.348;2023-09-08T06:58:45;98950.53;;;22.12;58.62
76156;BME280;64906;51.290;7.348;2023-09-08T07:01:10;98948.09;;;22.10;58.49
76156;BME280;64906;51.290;7.348;2023-09-08T07:03:35;98949.16;;;22.14;59.00
76156;BME280;64906;51.290;7.348;2023-09-08T07:06:02;98956.25;;;22.15;58.58
76156;BME280;64906;51.290;7.348;2023-09-08T07:08:27;98957.59;;;22.18;58.43
76156;BME280;64906;51.290;7.348;2023-09-08T07:10:52;98965.03;;;22.17;58.85
76156;BME280;64906;51.290;7.348;2023-09-08T07:13:19;98957.88;;;22.16;58.50
76156;BME280;64906;51.290;7.348;2023-09-08T07:15:44;98960.88;;;22.20;58.45
76156;BME280;64906;51.290;7.348;2023-09-08T07:18:09;98957.44;;;22.28;58.77
76156;BME280;64906;51.290;7.348;2023-09-08T07:20:35;98966.41;;;22.33;58.47
76156;BME280;64906;51.290;7.348;2023-09-08T07:23:00;98963.38;;;22.35;58.09
76156;BME280;64906;51.290;7.348;2023-09-08T07:25:25;98967.75;;;22.36;57.88
76156;BME280;64906;51.290;7.348;2023-09-08T07:27:51;98969.63;;;22.40;57.91
76156;BME280;64906;51.290;7.348;2023-09-08T07:30:17;98956.44;;;22.37;57.96
76156;BME280;64906;51.290;7.348;2023-09-08T07:32:43;98973.16;;;22.41;58.11
76156;BME280;64906;51.290;7.348;2023-09-08T07:35:09;98960.75;;;22.43;58.00
76156;BME280;64906;51.290;7.348;2023-09-08T07:37:39;98966.34;;;22.38;58.26
76156;BME280;64906;51.290;7.348;2023-09-08T07:40:05;98958.09;;;22.38;58.25
76156;BME280;64906;51.290;7.348;2023-09-08T07:42:30;98961.38;;;22.40;57.79
76156;BME280;64906;51.290;7.348;2023-09-08T07:44:56;98963.19;;;22.45;58.11
76156;BME280;64906;51.290;7.348;2023-09-08T07:47:21;98964.03;;;22.45;57.59
76156;BME280;64906;51.290;7.348;2023-09-08T07:49:47;98957.41;;;22.46;57.68
76156;BME280;64906;51.290;7.348;2023-09-08T07:52:13;98956.25;;;22.47;57.93
76156;BME280;64906;51.290;7.348;2023-09-08T07:54:38;98965.56;;;22.51;57.64
76156;BME280;64906;51.290;7.348;2023-09-08T07:57:04;98965.28;;;22.53;57.49
76156;BME280;64906;51.290;7.348;2023-09-08T07:59:29;98965.50;;;22.56;57.69
76156;BME280;64906;51.290;7.348;2023-09-08T08:01:55;98961.09;;;22.55;57.47
76156;BME280;64906;51.290;7.348;2023-09-08T08:04:20;98964.28;;;22.63;57.08
76156;BME280;64906;51.290;7.348;2023-09-08T08:06:45;98963.78;;;22.60;57.25
76156;BME280;64906;51.290;7.348;2023-09-08T08:09:12;98957.78;;;22.58;57.63
76156;BME280;64906;51.290;7.348;2023-09-08T08:11:37;98958.56;;;22.59;57.29
76156;BME280;64906;51.290;7.348;2023-09-08T08:14:03;98962.06;;;22.65;57.18
76156;BME280;64906;51.290;7.348;2023-09-08T08:16:28;98960.94;;;22.66;57.46
76156;BME280;64906;51.290;7.348;2023-09-08T08:18:53;98959.84;;;22.67;57.32
76156;BME280;64906;51.290;7.348;2023-09-08T08:21:19;98955.84;;;22.73;56.68
76156;BME280;64906;51.290;7.348;2023-09-08T08:23:44;98963.91;;;22.69;57.35
76156;BME280;64906;51.290;7.348;2023-09-08T08:26:09;98961.97;;;22.70;57.35
76156;BME280;64906;51.290;7.348;2023-09-08T08:28:34;98952.50;;;22.76;57.19
76156;BME280;64906;51.290;7.348;2023-09-08T08:31:00;98955.84;;;22.73;57.06
76156;BME280;64906;51.290;7.348;2023-09-08T08:33:25;98955.16;;;22.81;56.88
76156;BME280;64906;51.290;7.348;2023-09-08T08:35:54;98960.66;;;22.81;57.02
76156;BME280;64906;51.290;7.348;2023-09-08T08:38:20;98961.69;;;22.85;56.71
76156;BME280;64906;51.290;7.348;2023-09-08T08:40:45;98956.41;;;22.88;56.52
76156;BME280;64906;51.290;7.348;2023-09-08T08:43:10;98956.28;;;22.93;56.32
76156;BME280;64906;51.290;7.348;2023-09-08T08:45:37;98954.97;;;22.91;56.63
76156;BME280;64906;51.290;7.348;2023-09-08T08:48:05;98961.19;;;22.96;56.33
76156;BME280;64906;51.290;7.348;2023-09-08T08:50:32;98961.38;;;23.00;56.03
76156;BME280;64906;51.290;7.348;2023-09-08T08:52:57;98960.81;;;23.03;56.03
76156;BME280;64906;51.290;7.348;2023-09-08T08:55:25;98957.53;;;23.01;56.26
76156;BME280;64906;51.290;7.348;2023-09-08T08:57:50;98959.56;;;23.09;56.05
76156;BME280;64906;51.290;7.348;2023-09-08T09:00:16;98955.69;;;23.10;55.80
76156;BME280;64906;51.290;7.348;2023-09-08T09:02:44;98960.59;;;23.13;55.67
76156;BME280;64906;51.290;7.348;2023-09-08T09:05:13;98962.00;;;23.10;55.93
76156;BME280;64906;51.290;7.348;2023-09-08T09:07:42;98965.59;;;23.11;56.25
76156;BME280;64906;51.290;7.348;2023-09-08T09:10:08;98963.94;;;23.10;56.18
76156;BME280;64906;51.290;7.348;2023-09-08T09:12:36;98964.78;;;23.10;55.95
76156;BME280;64906;51.290;7.348;2023-09-08T09:15:03;98962.84;;;23.11;56.17
76156;BME280;64906;51.290;7.348;2023-09-08T09:17:33;98958.34;;;23.15;55.69
76156;BME280;64906;51.290;7.348;2023-09-08T09:20:17;98954.69;;;23.19;55.54
76156;BME280;64906;51.290;7.348;2023-09-08T09:22:44;98960.09;;;23.11;55.94
76156;BME280;64906;51.290;7.348;2023-09-08T09:25:09;98965.81;;;23.14;56.15
76156;BME280;64906;51.290;7.348;2023-09-08T09:27:35;98954.16;;;23.17;56.05
76156;BME280;64906;51.290;7.348;2023-09-08T09:30:03;98958.34;;;23.15;56.28
76156;BME280;64906;51.290;7.348;2023-09-08T09:32:28;98957.03;;;23.12;55.90
76156;BME280;64906;51.290;7.348;2023-09-08T09:34:57;98949.66;;;23.21;55.87
76156;BME280;64906;51.290;7.348;2023-09-08T09:37:23;98963.75;;;23.20;55.61
76156;BME280;64906;51.290;7.348;2023-09-08T09:39:53;98951.63;;;23.21;55.88
76156;BME280;64906;51.290;7.348;2023-09-08T09:42:19;98951.94;;;23.19;56.08
76156;BME280;64906;51.290;7.348;2023-09-08T09:44:51;98952.53;;;23.16;56.16
76156;BME280;64906;51.290;7.348;2023-09-08T09:47:17;98950.50;;;23.22;55.90
76156;BME280;64906;51.290;7.348;2023-09-08T09:49:47;98946.91;;;23.21;56.07
76156;BME280;64906;51.290;7.348;2023-09-08T09:52:14;98946.59;;;23.23;55.79
76156;BME280;64906;51.290;7.348;2023-09-08T09:54:42;98944.97;;;23.22;56.02
76156;BME280;64906;51.290;7.348;2023-09-08T09:57:11;98955.38;;;23.25;55.95
76156;BME280;64906;51.290;7.348;2023-09-08T09:59:37;98954.00;;;23.27;55.96
76156;BME280;64906;51.290;7.348;2023-09-08T10:02:03;98950.00;;;23.33;55.73
76156;BME280;64906;51.290;7.348;2023-09-08T10:04:29;98953.06;;;23.32;55.62
76156;BME280;64906;51.290;7.348;2023-09-08T10:06:55;98948.97;;;23.29;55.77
76156;BME280;64906;51.290;7.348;2023-09-08T10:09:23;98944.28;;;23.30;55.67
76156;BME280;64906;51.290;7.348;2023-09-08T10:11:49;98945.44;;;23.29;55.59
76156;BME280;64906;51.290;7.348;2023-09-08T10:14:16;98940.72;;;23.29;55.63
76156;BME280;64906;51.290;7.348;2023-09-08T10:16:44;98954.38;;;23.34;55.59
76156;BME280;64906;51.290;7.348;2023-09-08T10:19:11;98948.88;;;23.34;55.50
76156;BME280;64906;51.290;7.348;2023-09-08T10:21:40;98954.59;;;23.38;55.87
76156;BME280;64906;51.290;7.348;2023-09-08T10:24:21;98957.84;;;23.40;55.64
76156;BME280;64906;51.290;7.348;2023-09-08T10:27:00;98961.22;;;23.37;55.54
76156;BME280;64906;51.290;7.348;2023-09-08T10:29:29;98960.31;;;23.41;55.60
76156;BME280;64906;51.290;7.348;2023-09-08T10:31:55;98950.72;;;23.39;55.37
76156;BME280;64906;51.290;7.348;2023-09-08T10:34:22;98959.47;;;23.41;55.40
76156;BME280;64906;51.290;7.348;2023-09-08T10:36:49;98956.41;;;23.42;55.48
76156;BME280;64906;51.290;7.348;2023-09-08T10:39:34;98953.34;;;23.44;55.59
76156;BME280;64906;51.290;7.348;2023-09-08T10:47:13;98956.09;;;23.44;55.53
76156;BME280;64906;51.290;7.348;2023-09-08T10:49:40;98958.38;;;23.42;55.36
76156;BME280;64906;51.290;7.348;2023-09-08T10:52:10;98947.56;;;23.45;55.40
76156;BME280;64906;51.290;7.348;2023-09-08T10:54:48;98953.25;;;23.49;55.59
76156;BME280;64906;51.290;7.348;2023-09-08T10:57:14;98955.50;;;23.47;55.66
76156;BME280;64906;51.290;7.348;2023-09-08T10:59:45;98950.31;;;23.45;55.93
76156;BME280;64906;51.290;7.348;2023-09-08T11:02:34;98955.41;;;23.52;55.32
76156;BME280;64906;51.290;7.348;2023-09-08T11:05:06;98958.16;;;23.52;55.59
76156;BME280;64906;51.290;7.348;2023-09-08T11:07:31;98958.66;;;23.54;55.70
76156;BME280;64906;51.290;7.348;2023-09-08T11:10:00;98951.19;;;23.54;55.72
76156;BME280;64906;51.290;7.348;2023-09-08T11:12:28;98952.03;;;23.55;55.29
76156;BME280;64906;51.290;7.348;2023-09-08T11:14:54;98961.28;;;23.59;55.26
76156;BME280;64906;51.290;7.348;2023-09-08T11:17:20;98957.44;;;23.60;55.44
76156;BME280;64906;51.290;7.348;2023-09-08T11:19:46;98956.28;;;23.61;55.38
76156;BME280;64906;51.290;7.348;2023-09-08T11:22:16;98957.44;;;23.60;55.22
76156;BME280;64906;51.290;7.348;2023-09-08T11:24:42;98955.97;;;23.62;55.21
76156;BME280;64906;51.290;7.348;2023-09-08T11:27:08;98952.13;;;23.63;55.35
76156;BME280;64906;51.290;7.348;2023-09-08T11:29:33;98952.28;;;23.67;55.55
76156;BME280;64906;51.290;7.348;2023-09-08T11:31:59;98955.88;;;23.67;55.19
76156;BME280;64906;51.290;7.348;2023-09-08T11:34:24;98950.06;;;23.69;55.00
76156;BME280;64906;51.290;7.348;2023-09-08T11:36:49;98947.91;;;23.66;55.66
76156;BME280;64906;51.290;7.348;2023-09-08T11:39:15;98945.69;;;23.68;55.13
76156;BME280;64906;51.290;7.348;2023-09-08T11:41:41;98950.56;;;23.71;55.26
76156;BME280;64906;51.290;7.348;2023-09-08T11:44:06;98947.81;;;23.71;55.12
76156;BME280;64906;51.290;7.348;2023-09-08T11:46:31;98936.47;;;23.72;55.16
76156;BME280;64906;51.290;7.348;2023-09-08T11:48:57;98949.13;;;23.73;55.25
76156;BME280;64906;51.290;7.348;2023-09-08T11:51:23;98943.91;;;23.72;55.24
76156;BME280;64906;51.290;7.348;2023-09-08T11:53:49;98940.53;;;23.75;55.52
76156;BME280;64906;51.290;7.348;2023-09-08T11:56:14;98943.13;;;23.71;55.33
76156;BME280;64906;51.290;7.348;2023-09-08T11:58:40;98947.69;;;23.76;55.01
76156;BME280;64906;51.290;7.348;2023-09-08T12:01:06;98944.94;;;23.76;55.22
76156;BME280;64906;51.290;7.348;2023-09-08T12:03:32;98942.69;;;23.78;55.44
76156;BME280;64906;51.290;7.348;2023-09-08T12:05:57;98933.91;;;23.76;55.53
76156;BME280;64906;51.290;7.348;2023-09-08T12:08:25;98950.97;;;23.78;55.08
76156;BME280;64906;51.290;7.348;2023-09-08T12:10:53;98944.94;;;23.76;55.57
76156;BME280;64906;51.290;7.348;2023-09-08T12:13:23;98940.41;;;23.80;55.37
76156;BME280;64906;51.290;7.348;2023-09-08T12:15:48;98938.16;;;23.82;55.44
76156;BME280;64906;51.290;7.348;2023-09-08T12:18:14;98929.91;;;23.82;55.37
76156;BME280;64906;51.290;7.348;2023-09-08T12:20:43;98940.41;;;23.80;55.51
76156;BME280;64906;51.290;7.348;2023-09-08T12:23:22;98939.00;;;23.82;55.59
76156;BME280;64906;51.290;7.348;2023-09-08T12:25:51;98932.34;;;23.83;55.32
76156;BME280;64906;51.290;7.348;2023-09-08T12:28:19;98937.06;;;23.83;55.57
76156;BME280;64906;51.290;7.348;2023-09-08T12:30:44;98926.72;;;23.88;55.39
76156;BME280;64906;51.290;7.348;2023-09-08T12:33:10;98924.91;;;23.84;55.21
76156;BME280;64906;51.290;7.348;2023-09-08T12:35:36;98922.16;;;23.84;55.46
76156;BME280;64906;51.290;7.348;2023-09-08T12:38:03;98919.91;;;23.86;55.13
76156;BME280;64906;51.290;7.348;2023-09-08T12:40:32;98925.41;;;23.86;55.30
76156;BME280;64906;51.290;7.348;2023-09-08T12:42:57;98921.81;;;23.85;55.20
76156;BME280;64906;51.290;7.348;2023-09-08T12:45:25;98929.34;;;23.93;55.02
76156;BME280;64906;51.290;7.348;2023-09-08T12:47:51;98920.69;;;23.86;55.23
76156;BME280;64906;51.290;7.348;2023-09-08T12:50:17;98919.91;;;23.86;55.34
76156;BME280;64906;51.290;7.348;2023-09-08T12:52:43;98925.78;;;23.93;55.21
76156;BME280;64906;51.290;7.348;2023-09-08T12:55:08;98913.94;;;23.92;55.39
76156;BME280;64906;51.290;7.348;2023-09-08T12:57:35;98920.69;;;23.86;55.33
76156;BME280;64906;51.290;7.348;2023-09-08T13:00:00;98919.16;;;23.94;55.04
76156;BME280;64906;51.290;7.348;2023-09-08T13:02:26;98923.00;;;23.93;55.36
76156;BME280;64906;51.290;7.348;2023-09-08T13:04:51;98908.75;;;23.91;55.66
76156;BME280;64906;51.290;7.348;2023-09-08T13:07:17;98914.25;;;23.91;55.46